Kralendijk, Bonaire, Dutch Antilles Cruise Port

Bonaire has consistently been ranked as the finest snorkeling and scuba diving destination in the Caribbean for two decades. This is because of the island's diligent stewardship of its marine resources. Since 1979, all the waters of Bonaire's coast have been legally protected.

Besides snorkeling and scuba diving, there is plenty more to be done here. Bonaire has trade winds that are usually steady and wash over the island. This creates ideal conditions for windsurfing. The sere beauty of this semi-desert landscape is home to an assortment of wildlife. Atop the rock formations of Washington Slagbaai you can find iguanas toasting themselves, while they watch a vast cloud of orange-pink flamingoes drift across the bone-white salt flats. The divi-divi trees bending into the surreal sculptures of the wind, and towering cacti represent the Caribbean's diverse ecology.

Another great thing about Bonaire is that it has a yearly average temperature of 82 degrees F (27.8 degrees C) with an average water temperature of 80 degrees F (26.7 degrees C). All year, Bonaire is not likely to see more than 22 inches (56 cm) of rain. This can be attributed to its nearly constant humidity of 76% and year round sunny forecast.

Cruise Deals Including Bonaire

Date Ship Nts Destination Inside Oceanview Balcony Suite Per Night
2021-08-27 Equinox 9 Southern Caribbean $ 2310 pp $ 2570 pp $ 2788 pp $ 8102 pp $ 109 pp/pd
2021-09-05 Vision Of The Seas 7 Southern Caribbean $ 999 pp $ 1330 pp N/A $ 3200 pp $ 87 pp/pd
2021-09-17 Equinox 9 Southern Caribbean $ 2651 pp $ 2831 pp $ 3023 pp $ 8155 pp $ 109 pp/pd
2021-10-03 Vision Of The Seas 7 Southern Caribbean $ 999 pp $ 1079 pp N/A $ 3043 pp $ 81 pp/pd
2021-10-08 Equinox 9 Southern Caribbean $ 2289 pp $ 2500 pp $ 3053 pp $ 4882 pp $ 109 pp/pd
2021-10-15 Sirena 27 World Cruise $ 3949 pp $ 4199 pp $ 5999 pp N/A $ 146 pp/pd
2021-10-19 Joy 11 Southern Caribbean $ 1609 pp $ 2078 pp $ 2491 pp $ 3016 pp $ 146 pp/pd
2021-10-20 Equinox 9 Southern Caribbean $ 3228 pp $ 3328 pp $ 4108 pp $ 6049 pp $ 150 pp/pd
2021-10-29 Equinox 9 Southern Caribbean $ 2159 pp $ 2329 pp $ 3039 pp $ 10149 pp $ 109 pp/pd
2021-10-30 Vision Of The Seas 7 Southern Caribbean $ 1303 pp $ 1435 pp N/A $ 3605 pp $ 117 pp/pd
2021-11-02 Sky 9 Panama Canal $ 1049 pp $ 1329 pp $ 1903 pp $ 4759 pp $ 117 pp/pd
2021-11-06 Magic 8 Southern Caribbean $ 779 pp N/A N/A N/A $ 97 pp/pd
2021-11-10 Rotterdam 21 Southern Caribbean $ 2759 pp $ 3139 pp $ 4179 pp N/A $ 131 pp/pd
2021-11-11 Sky 9 Panama Canal $ 1049 pp $ 1329 pp $ 1952 pp $ 4451 pp $ 117 pp/pd
2021-11-19 Equinox 9 Southern Caribbean $ 2328 pp $ 2608 pp $ 2888 pp $ 5599 pp $ 114 pp/pd
2021-11-20 Sky 9 Panama Canal $ 1049 pp $ 1329 pp $ 1987 pp $ 4388 pp $ 117 pp/pd
2021-11-21 Rotterdam 21 Southern Caribbean $ 2849 pp $ 3331 pp $ 4862 pp N/A $ 136 pp/pd
2021-11-22 Silhouette 11 Southern Caribbean $ 2409 pp $ 2559 pp $ 3019 pp $ 7619 pp $ 130 pp/pd
2021-11-26 Quest 14 Caribbean $ 2449 pp $ 2834 pp $ 4479 pp N/A $ 175 pp/pd
2021-11-28 Explorer Of The Seas 7 Southern Caribbean $ 1359 pp $ 1837 pp N/A $ 3899 pp $ 88 pp/pd
2021-11-29 Sky 9 Panama Canal $ 1049 pp $ 1329 pp $ 1903 pp $ 4262 pp $ 117 pp/pd
2021-12-01 Rotterdam 21 Southern Caribbean $ 2849 pp $ 3327 pp $ 4748 pp N/A $ 136 pp/pd
2021-12-06 Sunshine 10 Southern Caribbean $ 999 pp $ 1229 pp $ 3999 pp $ 3299 pp $ 100 pp/pd
2021-12-08 Sky 9 Panama Canal $ 1049 pp $ 1329 pp $ 2176 pp $ 5592 pp $ 117 pp/pd
2021-12-10 Enchanted Princess 20 Caribbean $ 2899 pp $ 4057 pp $ 4067 pp $ 5699 pp $ 145 pp/pd
2021-12-11 Seabourn Odyssey 18 Caribbean N/A $ 7999 pp N/A $ 8999 pp $ 444 pp/pd
2021-12-12 Rotterdam 21 Southern Caribbean $ 2919 pp $ 3399 pp $ 4149 pp $ 9469 pp $ 139 pp/pd
2021-12-13 Regal Princess 16 Caribbean $ 2099 pp N/A $ 2878 pp $ 4799 pp $ 131 pp/pd
2021-12-18 Seabourn Odyssey 21 Caribbean N/A $ 9999 pp N/A $ 11999 pp $ 476 pp/pd
2021-12-20 Enchanted Princess 20 Caribbean $ 2599 pp N/A $ 4114 pp $ 5699 pp $ 130 pp/pd
2021-12-21 Regal Princess 16 Caribbean $ 2399 pp N/A $ 3328 pp $ 5199 pp $ 150 pp/pd
2021-12-23 Riviera 12 Southern Caribbean N/A N/A $ 4149 pp N/A $ 346 pp/pd
2021-12-24 Silhouette 11 Southern Caribbean $ 3369 pp $ 3529 pp $ 4089 pp $ 8229 pp $ 213 pp/pd
2021-12-26 Explorer Of The Seas 7 Southern Caribbean $ 2741 pp $ 3405 pp N/A $ 5655 pp $ 96 pp/pd
2021-12-27 Getaway 9 Southern Caribbean $ 1644 pp $ 1973 pp $ 2155 pp $ 2477 pp $ 183 pp/pd
2021-12-29 Regal Princess 16 Caribbean $ 2169 pp N/A $ 2968 pp $ 4599 pp $ 136 pp/pd
2022-01-02 Grandeur Of The Seas 7 Southern Caribbean $ 920 pp $ 1077 pp N/A $ 3555 pp $ 69 pp/pd
2022-01-03 Constellation 11 Southern Caribbean $ 2309 pp $ 2489 pp $ 3459 pp $ 12699 pp $ 125 pp/pd
2022-01-04 Riviera 73 World Cruise N/A N/A $ 21349 pp N/A $ 292 pp/pd
2022-01-05 Getaway 9 Southern Caribbean $ 1014 pp $ 1455 pp $ 1602 pp $ 1784 pp $ 113 pp/pd
2022-01-06 Regal Princess 16 Caribbean $ 1869 pp N/A $ 2428 pp $ 3799 pp $ 117 pp/pd
2022-01-09 Grandeur Of The Seas 14 Southern Caribbean $ 1857 pp N/A N/A $ 8019 pp $ 86 pp/pd
2022-01-12 Nieuw Statendam 21 Southern Caribbean $ 3709 pp $ 4799 pp $ 5469 pp $ 7179 pp $ 177 pp/pd
2022-01-15 Freedom 8 Southern Caribbean $ 644 pp $ 774 pp $ 1139 pp $ 2329 pp $ 81 pp/pd
2022-01-16 Epic 7 Southern Caribbean $ 762 pp N/A $ 1385 pp $ 1644 pp $ 109 pp/pd
2022-01-19 Enchanted Princess 20 Caribbean $ 2599 pp N/A $ 4306 pp $ 6399 pp $ 130 pp/pd
2022-01-20 Jewel 10 Panama Canal $ 902 pp $ 1154 pp $ 1854 pp $ 2204 pp $ 90 pp/pd
2022-01-21 Equinox 9 Southern Caribbean $ 2049 pp $ 3208 pp $ 3848 pp $ 6949 pp $ 124 pp/pd
2022-01-22 Horizon 8 Southern Caribbean $ 679 pp $ 889 pp $ 1289 pp $ 2309 pp $ 85 pp/pd
2022-01-23 Explorer Of The Seas 7 Southern Caribbean $ 1755 pp $ 2184 pp N/A $ 10199 pp $ 62 pp/pd
2022-01-29 Enchanted Princess 20 Caribbean $ 2699 pp N/A $ 4306 pp $ 6399 pp $ 135 pp/pd
2022-01-30 Jewel 11 Panama Canal $ 1126 pp $ 1378 pp $ 1994 pp $ 2449 pp $ 102 pp/pd
2022-02-02 Getaway 9 Southern Caribbean $ 1042 pp $ 1371 pp $ 1882 pp $ 2204 pp $ 116 pp/pd
2022-02-05 Silver Spirit 9 Caribbean N/A N/A N/A $ 4230 pp $ 470 pp/pd
2022-02-07 Riviera 12 Southern Caribbean N/A N/A $ 4299 pp N/A $ 358 pp/pd
2022-02-08 Enchanted Princess 20 Caribbean $ 2649 pp N/A $ 4401 pp $ 6399 pp $ 132 pp/pd
2022-02-09 Dawn 11 Southern Caribbean $ 1581 pp $ 1742 pp $ 3086 pp $ 3604 pp $ 144 pp/pd
2022-02-11 Sirena 12 Southern Caribbean $ 2899 pp $ 3049 pp $ 4249 pp $ 5599 pp $ 242 pp/pd
2022-02-12 Freedom 8 Southern Caribbean $ 709 pp $ 869 pp $ 1279 pp $ 2809 pp $ 89 pp/pd
2022-02-13 Grandeur Of The Seas 7 Southern Caribbean $ 890 pp $ 1049 pp N/A $ 4420 pp $ 65 pp/pd
2022-02-14 Silhouette 11 Southern Caribbean $ 2849 pp $ 3019 pp $ 3609 pp $ 8669 pp $ 172 pp/pd
2022-02-18 Enchanted Princess 20 Caribbean $ 2499 pp N/A $ 4210 pp $ 5999 pp $ 125 pp/pd
2022-02-19 Horizon 8 Southern Caribbean $ 729 pp $ 959 pp $ 1349 pp $ 2299 pp $ 91 pp/pd
2022-02-20 Grandeur Of The Seas 14 Southern Caribbean $ 2212 pp N/A N/A N/A $ 103 pp/pd
2022-02-21 Jewel 9 Panama Canal $ 909 pp $ 1154 pp $ 2106 pp $ 2358 pp $ 101 pp/pd
2022-02-23 Nieuw Statendam 21 Southern Caribbean $ 3759 pp $ 4709 pp $ 5369 pp $ 7369 pp $ 179 pp/pd
2022-02-25 Seven Seas Navigator 12 Eastern Caribbean N/A N/A N/A $ 8599 pp $ 717 pp/pd
2022-02-26 Magic 8 Southern Caribbean $ 729 pp $ 949 pp $ 1239 pp $ 1906 pp $ 91 pp/pd
2022-02-27 Crown Princess 14 Caribbean $ 1499 pp $ 1664 pp $ 3299 pp N/A $ 107 pp/pd
2022-02-28 Enchanted Princess 20 Caribbean $ 2499 pp $ 4009 pp $ 4019 pp $ 5899 pp $ 125 pp/pd
2022-03-02 Jewel 8 Panama Canal $ 706 pp $ 958 pp $ 1567 pp $ 1868 pp $ 88 pp/pd
2022-03-04 Equinox 9 Southern Caribbean $ 2209 pp $ 2389 pp $ 2889 pp $ 7649 pp $ 124 pp/pd
2022-03-05 Sirena 12 Southern Caribbean $ 2299 pp $ 2349 pp $ 3349 pp $ 4499 pp $ 192 pp/pd
2022-03-06 Nieuw Statendam 21 Southern Caribbean $ 3759 pp $ 4709 pp $ 5369 pp $ 7369 pp $ 179 pp/pd
2022-03-07 Silhouette 11 Southern Caribbean $ 2609 pp $ 2749 pp $ 3469 pp $ 7969 pp $ 149 pp/pd
2022-03-10 Enchanted Princess 20 Caribbean $ 2649 pp $ 4391 pp $ 4401 pp $ 6299 pp $ 132 pp/pd
2022-03-12 Freedom 8 Southern Caribbean $ 809 pp $ 959 pp $ 1308 pp N/A $ 101 pp/pd
2022-03-13 Epic 7 Southern Caribbean $ 853 pp N/A $ 1497 pp $ 1889 pp $ 122 pp/pd
2022-03-16 Nieuw Statendam 21 Southern Caribbean $ 3759 pp $ 4709 pp $ 5369 pp $ 7369 pp $ 179 pp/pd
2022-03-19 Seabourn Odyssey 14 Southern Caribbean N/A $ 5999 pp N/A $ 6599 pp $ 429 pp/pd
2022-03-20 Explorer Of The Seas 7 Southern Caribbean $ 2076 pp $ 2826 pp N/A $ 5826 pp $ 86 pp/pd
2022-03-26 Seabourn Odyssey 7 Southern Caribbean N/A $ 3299 pp N/A $ 3899 pp $ 471 pp/pd
2022-03-27 Grandeur Of The Seas 7 Southern Caribbean $ 907 pp $ 1116 pp N/A $ 4401 pp $ 66 pp/pd
2022-03-28 Silhouette 11 Southern Caribbean $ 2509 pp $ 2799 pp $ 3249 pp $ 8169 pp $ 141 pp/pd
2022-04-02 Crown Princess 14 Caribbean $ 1399 pp $ 1553 pp $ 2999 pp $ 3899 pp $ 100 pp/pd
2022-04-16 Seabourn Odyssey 33 Panama Canal N/A $ 11999 pp N/A $ 12999 pp $ 364 pp/pd
2022-04-17 Explorer Of The Seas 7 Southern Caribbean $ 1755 pp $ 2141 pp N/A $ 4262 pp $ 81 pp/pd
2022-04-23 Magic 8 Southern Caribbean $ 759 pp $ 964 pp $ 1279 pp $ 2331 pp $ 95 pp/pd
2022-04-24 Grandeur Of The Seas 10 Repositioning $ 948 pp $ 1177 pp N/A $ 4433 pp $ 54 pp/pd
2022-04-30 Horizon 8 Southern Caribbean $ 779 pp $ 969 pp $ 1369 pp $ 2281 pp $ 97 pp/pd
2022-05-06 Equinox 9 Southern Caribbean $ 2349 pp $ 2419 pp $ 2749 pp $ 11519 pp $ 155 pp/pd
2022-05-07 Mariner Of The Seas 8 Southern Caribbean $ 1917 pp $ 2559 pp N/A $ 4767 pp $ 86 pp/pd
2022-05-14 Explorer Of The Seas 8 Southern Caribbean $ 1131 pp $ 1341 pp N/A $ 3715 pp $ 72 pp/pd
2022-05-28 Horizon 8 Southern Caribbean $ 979 pp $ 1169 pp $ 1559 pp $ 2579 pp $ 122 pp/pd
2022-06-06 Crystal Esprit 7 Mediterranean N/A N/A N/A $ 8122 pp $ 1160 pp/pd
2022-06-11 Explorer Of The Seas 8 Southern Caribbean $ 1245 pp $ 2199 pp N/A $ 3093 pp $ 83 pp/pd
2022-06-18 Mariner Of The Seas 8 Southern Caribbean $ 2003 pp $ 2688 pp N/A $ 6224 pp $ 124 pp/pd
2022-06-25 Horizon 8 Southern Caribbean $ 1049 pp $ 1269 pp $ 1709 pp $ 2549 pp $ 131 pp/pd
2022-07-09 Mariner Of The Seas 8 Southern Caribbean $ 2153 pp $ 2517 pp N/A $ 5174 pp $ 98 pp/pd
2022-07-23 Horizon 8 Southern Caribbean $ 1049 pp $ 1259 pp $ 1709 pp $ 2614 pp $ 131 pp/pd
2022-08-06 Explorer Of The Seas 8 Southern Caribbean $ 1166 pp $ 1379 pp N/A $ 2679 pp $ 79 pp/pd
2022-08-13 Mariner Of The Seas 8 Southern Caribbean $ 2067 pp $ 2174 pp N/A $ 3546 pp $ 112 pp/pd
2022-08-20 Horizon 8 Southern Caribbean $ 789 pp $ 949 pp $ 1299 pp $ 1939 pp $ 99 pp/pd
2022-09-03 Explorer Of The Seas 8 Southern Caribbean $ 1103 pp $ 1399 pp N/A $ 2798 pp $ 76 pp/pd
2022-09-08 Equinox 9 Southern Caribbean $ 2209 pp $ 2289 pp $ 2619 pp $ 3459 pp $ 162 pp/pd
2022-09-17 Equinox 9 Southern Caribbean $ 2259 pp $ 2319 pp $ 2649 pp $ 3509 pp $ 167 pp/pd
2022-10-01 Explorer Of The Seas 8 Southern Caribbean $ 1074 pp $ 1782 pp N/A $ 2299 pp $ 76 pp/pd
2022-10-06 Equinox 9 Southern Caribbean $ 2309 pp $ 2369 pp $ 2729 pp $ 6609 pp $ 172 pp/pd
2022-10-15 Summit 12 Repositioning $ 3064 pp $ 3184 pp $ 3244 pp N/A $ 185 pp/pd
2022-10-22 Freedom 8 Southern Caribbean $ 639 pp $ 769 pp $ 1039 pp $ 1649 pp $ 80 pp/pd
2022-10-23 Seven Seas Navigator 14 Bermuda N/A N/A N/A $ 7799 pp $ 557 pp/pd
2022-10-29 Explorer Of The Seas 8 Southern Caribbean $ 1189 pp $ 1365 pp N/A $ 2797 pp $ 85 pp/pd
2022-10-30 Rotterdam 21 Southern Caribbean $ 3439 pp $ 3999 pp $ 4469 pp $ 8459 pp $ 164 pp/pd
2022-11-03 Equinox 9 Southern Caribbean $ 2419 pp $ 2479 pp $ 2859 pp $ 3929 pp $ 183 pp/pd
2022-11-05 Enchanted Princess 14 Caribbean $ 1139 pp $ 1708 pp $ 1713 pp $ 2489 pp $ 81 pp/pd
2022-11-09 Rotterdam 21 Southern Caribbean $ 3439 pp $ 3999 pp $ 4379 pp $ 8459 pp $ 164 pp/pd
2022-11-12 Explorer Of The Seas 8 Southern Caribbean $ 1589 pp $ 2166 pp N/A $ 3465 pp $ 94 pp/pd
2022-11-13 Silver Moon 11 Caribbean N/A N/A N/A $ 6300 pp $ 573 pp/pd
2022-11-19 Jewel Of The Seas 8 Southern Caribbean $ 2072 pp $ 2372 pp N/A $ 4664 pp $ 102 pp/pd
2022-11-20 Rotterdam 21 Southern Caribbean $ 3239 pp $ 3809 pp $ 4379 pp $ 8179 pp $ 154 pp/pd
2022-11-21 Edge 11 Transcanal $ 5478 pp $ 6218 pp $ 7058 pp $ 31299 pp $ 234 pp/pd
2022-11-24 Jewel 9 Panama Canal $ 923 pp $ 1224 pp $ 1875 pp $ 2225 pp $ 103 pp/pd
2022-11-26 Explorer Of The Seas 8 Southern Caribbean $ 1589 pp $ 2166 pp N/A $ 3465 pp $ 96 pp/pd
2022-11-27 Voyager Of The Seas 7 Southern Caribbean $ 1248 pp $ 1467 pp N/A $ 2609 pp $ 91 pp/pd
2022-11-28 Sirena 22 World Cruise $ 2899 pp $ 3099 pp $ 4899 pp $ 6999 pp $ 132 pp/pd
2022-11-30 Rotterdam 21 Southern Caribbean $ 3039 pp $ 3619 pp $ 4189 pp $ 7799 pp $ 145 pp/pd
2022-12-03 Jewel 9 Panama Canal $ 923 pp $ 1224 pp $ 1798 pp $ 2148 pp $ 103 pp/pd
2022-12-04 Rhapsody Of The Seas 14 Southern Caribbean $ 2933 pp $ 3426 pp N/A $ 7755 pp $ 79 pp/pd
2022-12-05 Vision Of The Seas 11 Southern Caribbean $ 2676 pp $ 2934 pp N/A $ 7070 pp $ 88 pp/pd
2022-12-10 Seabourn Ovation 17 Caribbean N/A N/A N/A $ 9149 pp $ 538 pp/pd
2022-12-11 Rotterdam 17 Eastern Caribbean $ 2859 pp $ 3519 pp $ 3899 pp $ 7979 pp $ 168 pp/pd
2022-12-17 Seabourn Ovation 21 Caribbean N/A N/A N/A $ 11589 pp $ 552 pp/pd
2022-12-18 Regal Princess 16 Caribbean $ 2619 pp N/A $ 3479 pp $ 4759 pp $ 164 pp/pd
2022-12-20 Sirena 22 World Cruise $ 4749 pp $ 4949 pp $ 7249 pp $ 10849 pp $ 216 pp/pd
2022-12-21 Seabourn Sojourn 16 Caribbean N/A $ 8134 pp N/A $ 9134 pp $ 508 pp/pd
2022-12-22 Edge 11 Transcanal $ 3959 pp $ 4419 pp $ 4789 pp $ 31849 pp $ 291 pp/pd
2022-12-23 Encore 11 Southern Caribbean $ 2673 pp $ 3177 pp $ 3576 pp $ 3947 pp $ 243 pp/pd
2022-12-26 Vision Of The Seas 11 Southern Caribbean $ 2199 pp $ 2462 pp N/A $ 7013 pp $ 123 pp/pd
2022-12-28 Rotterdam 17 Southern Caribbean $ 3419 pp $ 4049 pp $ 4519 pp $ 9839 pp $ 201 pp/pd
2022-12-29 Enchanted Princess 20 Caribbean $ 2269 pp N/A $ 3638 pp $ 4949 pp $ 113 pp/pd
2022-12-30 Sirena 12 Southern Caribbean $ 2749 pp $ 2849 pp $ 4199 pp $ 6199 pp $ 229 pp/pd
2022-12-31 Magic 8 Southern Caribbean $ 959 pp $ 1179 pp $ 1429 pp $ 2074 pp $ 120 pp/pd
2023-01-02 Edge 11 Southern Caribbean $ 4448 pp $ 5248 pp $ 6148 pp $ 31199 pp $ 210 pp/pd
2023-01-04 Rotterdam 21 Southern Caribbean $ 3909 pp $ 4909 pp $ 5569 pp $ 11459 pp $ 186 pp/pd
2023-01-06 Voyager Of The Seas 9 Southern Caribbean $ 2007 pp $ 2271 pp N/A $ 3698 pp $ 126 pp/pd
2023-01-07 Explorer Of The Seas 8 Southern Caribbean $ 1531 pp $ 2084 pp N/A $ 3330 pp $ 96 pp/pd
2023-01-08 Enchanted Princess 20 Caribbean $ 1999 pp $ 3298 pp $ 3198 pp $ 4399 pp $ 100 pp/pd
2023-01-12 Equinox 9 Southern Caribbean $ 2519 pp $ 2579 pp $ 2959 pp $ 3819 pp $ 193 pp/pd
2023-01-14 Freedom 8 Southern Caribbean $ 619 pp $ 749 pp $ 1009 pp $ 1519 pp $ 77 pp/pd
2023-01-15 Rhapsody Of The Seas 14 Southern Caribbean $ 2997 pp $ 3597 pp N/A $ 8697 pp $ 82 pp/pd
2023-01-16 Vision Of The Seas 11 Southern Caribbean $ 2549 pp $ 3620 pp N/A $ 8484 pp $ 95 pp/pd
2023-01-21 Seven Seas Splendor 11 Eastern Caribbean N/A N/A N/A $ 6599 pp $ 600 pp/pd
2023-01-22 Epic 7 Southern Caribbean $ 902 pp N/A $ 1364 pp $ 1511 pp $ 129 pp/pd
2023-01-23 Seven Seas Navigator 11 Eastern Caribbean N/A N/A N/A $ 5599 pp $ 509 pp/pd
2023-01-26 Jewel 9 Panama Canal $ 923 pp $ 1224 pp $ 1777 pp $ 2127 pp $ 103 pp/pd
2023-01-28 Millennium 7 Southern Caribbean $ 2578 pp $ 2798 pp $ 3158 pp $ 2889 pp $ 166 pp/pd
2023-01-29 Epic 7 Southern Caribbean $ 923 pp N/A $ 1392 pp $ 1539 pp $ 132 pp/pd
2023-02-04 Explorer Of The Seas 8 Southern Caribbean $ 1599 pp $ 2084 pp N/A $ 3330 pp $ 96 pp/pd
2023-02-05 Epic 7 Southern Caribbean $ 944 pp N/A $ 1413 pp $ 1560 pp $ 135 pp/pd
2023-02-06 Vision Of The Seas 11 Southern Caribbean $ 2720 pp $ 3749 pp N/A $ 9341 pp $ 100 pp/pd
2023-02-08 Silver Dawn 10 Caribbean N/A N/A N/A $ 6120 pp $ 612 pp/pd
2023-02-11 Freedom 8 Southern Caribbean $ 689 pp $ 819 pp $ 1109 pp $ 1629 pp $ 86 pp/pd
2023-02-12 Rhapsody Of The Seas 14 Southern Caribbean $ 3191 pp $ 3683 pp N/A $ 8012 pp $ 86 pp/pd
2023-02-13 Jewel 9 Panama Canal $ 923 pp $ 1224 pp $ 1777 pp $ 2127 pp $ 103 pp/pd
2023-02-15 Rotterdam 21 Southern Caribbean $ 4039 pp $ 4999 pp $ 5669 pp $ 11639 pp $ 192 pp/pd
2023-02-17 Jewel Of The Seas 8 Southern Caribbean $ 2136 pp $ 2372 pp N/A $ 4664 pp $ 102 pp/pd
2023-02-18 Explorer Of The Seas 8 Southern Caribbean $ 1531 pp $ 2084 pp N/A $ 3330 pp $ 96 pp/pd
2023-02-19 Sirena 12 Southern Caribbean $ 2799 pp $ 3049 pp $ 4199 pp $ 5499 pp $ 233 pp/pd
2023-02-22 Jewel 10 Panama Canal $ 1021 pp $ 1322 pp $ 1959 pp $ 2358 pp $ 102 pp/pd
2023-02-25 Rotterdam 21 Southern Caribbean $ 4039 pp $ 4999 pp $ 5669 pp $ 11639 pp $ 192 pp/pd
2023-02-26 Epic 7 Southern Caribbean $ 972 pp N/A $ 1441 pp $ 1595 pp $ 139 pp/pd
2023-02-27 Vision Of The Seas 11 Southern Caribbean $ 2549 pp $ 3620 pp N/A $ 8484 pp $ 95 pp/pd
2023-03-03 Sirena 7 Southern Caribbean $ 1499 pp $ 1649 pp $ 2199 pp $ 2999 pp $ 214 pp/pd
2023-03-04 Explorer Of The Seas 8 Southern Caribbean $ 1599 pp $ 2352 pp N/A $ 3330 pp $ 96 pp/pd
2023-03-05 Epic 7 Southern Caribbean $ 986 pp N/A $ 1462 pp $ 1609 pp $ 141 pp/pd
2023-03-08 Rotterdam 21 Southern Caribbean $ 4039 pp $ 4999 pp $ 5669 pp $ 11639 pp $ 192 pp/pd
2023-03-09 Equinox 9 Southern Caribbean $ 2629 pp $ 2709 pp $ 3089 pp $ 3929 pp $ 204 pp/pd
2023-03-10 Sirena 10 Southern Caribbean $ 2199 pp $ 2449 pp $ 3299 pp $ 4299 pp $ 220 pp/pd
2023-03-11 Freedom 8 Southern Caribbean $ 719 pp $ 859 pp $ 1159 pp $ 1639 pp $ 90 pp/pd
2023-03-12 Rhapsody Of The Seas 7 Southern Caribbean $ 1883 pp $ 2055 pp N/A $ 4005 pp $ 100 pp/pd
2023-03-13 Silver Dawn 10 Caribbean N/A N/A N/A $ 6030 pp $ 603 pp/pd
2023-03-18 Explorer Of The Seas 8 Southern Caribbean $ 1531 pp $ 2084 pp N/A $ 3330 pp $ 96 pp/pd
2023-03-19 Epic 7 Southern Caribbean $ 986 pp N/A $ 1462 pp $ 1609 pp $ 141 pp/pd
2023-03-20 Vision Of The Seas 11 Southern Caribbean $ 2549 pp $ 3620 pp N/A $ 9062 pp $ 95 pp/pd
2023-03-25 Millennium 7 Southern Caribbean $ 2798 pp $ 2998 pp $ 3438 pp $ 2989 pp $ 180 pp/pd
2023-03-26 Epic 7 Southern Caribbean $ 986 pp N/A $ 1462 pp $ 1609 pp $ 141 pp/pd
2023-03-27 Edge 11 Transcanal $ 3399 pp $ 6018 pp $ 6958 pp $ 19199 pp $ 232 pp/pd
2023-03-29 Rotterdam 17 Eastern Caribbean $ 3239 pp $ 3809 pp $ 4329 pp $ 9079 pp $ 191 pp/pd
2023-04-01 Explorer Of The Seas 8 Southern Caribbean $ 1360 pp $ 1841 pp N/A $ 2924 pp $ 91 pp/pd
2023-04-02 Rhapsody Of The Seas 7 Southern Caribbean $ 1883 pp $ 2055 pp N/A $ 4005 pp $ 100 pp/pd
2023-04-06 Equinox 9 Southern Caribbean $ 2679 pp $ 2759 pp $ 3139 pp $ 3979 pp $ 209 pp/pd
2023-04-08 Freedom 8 Southern Caribbean $ 719 pp $ 859 pp $ 1159 pp $ 1639 pp $ 90 pp/pd
2023-04-09 Voyager Of The Seas 7 Southern Caribbean $ 1537 pp $ 1909 pp N/A $ 3666 pp $ 122 pp/pd
2023-04-10 Vision Of The Seas 11 Southern Caribbean $ 2441 pp $ 3470 pp N/A $ 8784 pp $ 91 pp/pd
2023-04-15 Explorer Of The Seas 8 Southern Caribbean $ 1360 pp $ 1841 pp N/A $ 2924 pp $ 91 pp/pd
2023-04-22 Millennium 7 Southern Caribbean $ 2578 pp $ 2798 pp $ 3158 pp N/A $ 166 pp/pd
2023-04-29 Horizon 8 Southern Caribbean $ 759 pp $ 939 pp $ 1319 pp $ 2061 pp $ 95 pp/pd
2023-06-12 Crystal Esprit 7 Mediterranean N/A N/A N/A $ 6917 pp $ 988 pp/pd
2023-12-03 Glory 14 Panama Canal $ 1059 pp $ 1419 pp $ 2199 pp $ 3600 pp $ 76 pp/pd
?>